Covington, Texas
Current Conditions -  °F | °C
As of 6:35 AM on Monday 20 Oct 2014 (Local Time) from KINJ Reporting Station
Clear Clear  
Wind Chill: 58°   Ceiling: Unl
Heat Index: 58°   Visibility: 10mi
Dew Point: 54°   Wind: 3mph
Humidity: 85%   Direction: 130°SE
Pressure: 30.07"   Gusts: NA
Location:  32.18°N, 97.26°W
Report Text: KINJ 201135Z AUTO 13003KT 10SM CLR 15/12 A3007 RMK AO2 T01460121
Loading
Personal Weather Stations






























Interactive Weather Map
Tropical Storm Tracking
New forecast layout! Learn more

10-Day Weather Forecast

Advertisements
Track Severe Weather on mobile